createdAt,value
2022-09-02T00:02:29.408Z,2.22
2022-09-02T00:04:57.736Z,3.10
2022-09-02T00:07:26.371Z,3.53
2022-09-02T00:09:54.806Z,5.72
2022-09-02T00:12:23.253Z,5.65
2022-09-02T00:14:51.724Z,1.88
2022-09-02T00:17:21.423Z,1.98
2022-09-02T00:19:54.219Z,2.00
2022-09-02T00:22:24.945Z,2.83
2022-09-02T00:24:53.265Z,2.67
2022-09-02T00:27:21.625Z,2.78
2022-09-02T00:29:50.095Z,3.90
2022-09-02T00:32:18.473Z,1.88
2022-09-02T00:34:48.785Z,4.25
2022-09-02T00:37:17.318Z,4.18
2022-09-02T00:39:45.975Z,1.75
2022-09-02T00:42:14.374Z,1.63
2022-09-02T00:44:43.132Z,2.30
2022-09-02T00:47:11.375Z,2.97
2022-09-02T00:49:42.925Z,2.03
2022-09-02T00:52:18.225Z,2.33
2022-09-02T00:54:51.115Z,1.52
2022-09-02T00:57:23.403Z,2.83
2022-09-02T01:00:02.306Z,3.17
2022-09-02T01:02:31.816Z,2.40
2022-09-02T01:05:00.129Z,2.47
2022-09-02T01:07:34.045Z,1.65
2022-09-02T01:10:03.025Z,1.55
2022-09-02T01:12:32.522Z,3.65
2022-09-02T01:15:01.304Z,2.08
2022-09-02T01:17:30.424Z,2.75
2022-09-02T01:20:02.845Z,3.83
2022-09-02T01:22:33.837Z,1.58
2022-09-02T01:25:06.527Z,2.70
2022-09-02T01:27:35.196Z,1.98
2022-09-02T01:30:03.584Z,3.35
2022-09-02T01:32:32.666Z,2.42
2022-09-02T01:35:01.144Z,1.98
2022-09-02T01:37:29.494Z,2.83
2022-09-02T01:39:59.754Z,2.17
2022-09-02T01:42:28.836Z,3.78
2022-09-02T01:44:57.018Z,3.35
2022-09-02T01:47:29.197Z,2.53
2022-09-02T01:49:57.825Z,4.20
2022-09-02T01:52:27.998Z,2.25
2022-09-02T01:54:57.165Z,1.88
2022-09-02T01:57:26.816Z,2.17
2022-09-02T01:59:56.316Z,3.42
2022-09-02T02:02:24.988Z,5.22
2022-09-02T02:04:54.815Z,2.42
2022-09-02T02:07:24.864Z,3.08
2022-09-02T02:09:53.425Z,2.33
2022-09-02T02:12:21.979Z,3.60
2022-09-02T02:14:51.823Z,1.85
2022-09-02T02:17:23.275Z,2.67
2022-09-02T02:19:51.675Z,3.53
2022-09-02T02:22:21.336Z,2.67
2022-09-02T02:24:49.633Z,3.15
2022-09-02T02:27:18.105Z,3.92
2022-09-02T02:29:46.856Z,2.38
2022-09-02T02:32:18.546Z,4.38
2022-09-02T02:34:47.675Z,6.10
2022-09-02T02:37:17.263Z,2.30
2022-09-02T02:39:45.905Z,5.30
2022-09-02T02:42:14.214Z,2.35
2022-09-02T02:44:43.768Z,3.65
2022-09-02T02:47:12.004Z,2.13
2022-09-02T02:49:44.666Z,3.03
2022-09-02T02:52:14.136Z,2.47
2022-09-02T02:54:42.775Z,3.20
2022-09-02T02:57:12.631Z,2.30
2022-09-02T02:59:40.853Z,3.92
2022-09-02T03:02:12.373Z,2.70
2022-09-02T03:04:42.935Z,3.47
2022-09-02T03:07:11.785Z,2.90
2022-09-02T03:09:40.193Z,1.90
2022-09-02T03:12:08.733Z,2.40
2022-09-02T03:14:38.015Z,4.35
2022-09-02T03:17:06.854Z,2.28
2022-09-02T03:19:36.595Z,2.17
2022-09-02T03:22:06.759Z,2.10
2022-09-02T03:24:35.906Z,1.75
2022-09-02T03:27:04.266Z,2.25
2022-09-02T03:29:32.986Z,1.90
2022-09-02T03:32:01.792Z,2.55
2022-09-02T03:34:32.934Z,1.67
2022-09-02T03:37:01.387Z,1.92
2022-09-02T03:39:31.495Z,3.30
2022-09-02T03:41:59.708Z,2.10
2022-09-02T03:44:29.676Z,2.95
2022-09-02T03:46:58.747Z,1.77
2022-09-02T03:49:27.865Z,2.45
2022-09-02T03:51:56.396Z,2.40
2022-09-02T03:54:24.725Z,2.97
2022-09-02T03:56:54.577Z,2.25
2022-09-02T03:59:25.556Z,1.80
2022-09-02T04:01:53.986Z,1.73
2022-09-02T04:04:23.083Z,2.28
2022-09-02T04:06:53.544Z,2.45
2022-09-02T04:09:22.396Z,1.73
2022-09-02T04:11:50.785Z,1.30
2022-09-02T04:14:21.377Z,1.73
2022-09-02T04:16:49.774Z,1.73
2022-09-02T04:19:18.075Z,1.75
2022-09-02T04:21:46.925Z,1.60
2022-09-02T04:24:15.325Z,1.38
2022-09-02T04:26:47.647Z,1.25
2022-09-02T04:29:19.051Z,2.90
2022-09-02T04:31:51.433Z,2.08
2022-09-02T04:34:20.551Z,3.25
2022-09-02T04:36:51.125Z,1.83
2022-09-02T04:39:21.015Z,1.60
2022-09-02T04:41:51.017Z,2.05
2022-09-02T04:44:19.416Z,3.58
2022-09-02T04:46:50.530Z,1.17
2022-09-02T04:49:21.584Z,1.70
2022-09-02T04:51:54.503Z,1.20
2022-09-02T04:54:24.885Z,1.05
2022-09-02T04:56:53.984Z,2.20
2022-09-02T04:59:24.035Z,1.75
2022-09-02T05:02:08.651Z,2.67
2022-09-02T05:04:37.343Z,1.42
2022-09-02T05:07:09.884Z,1.70
2022-09-02T05:09:44.507Z,1.65
2022-09-02T05:12:13.087Z,2.83
2022-09-02T05:14:49.130Z,1.30
2022-09-02T05:17:23.045Z,2.75
2022-09-02T05:19:52.816Z,1.45
2022-09-02T05:22:22.434Z,2.00
2022-09-02T05:24:51.066Z,1.70
2022-09-02T05:27:20.546Z,1.52
2022-09-02T05:29:51.343Z,1.58
2022-09-02T05:32:24.216Z,1.95
2022-09-02T05:34:54.355Z,1.50
2022-09-02T05:37:24.448Z,1.33
2022-09-02T05:39:54.122Z,1.95
2022-09-02T05:42:22.565Z,1.25
2022-09-02T05:44:53.085Z,1.50
2022-09-02T05:47:26.245Z,2.42
2022-09-02T05:49:55.763Z,2.03
2022-09-02T05:52:26.615Z,1.80
2022-09-02T05:54:56.924Z,1.70
2022-09-02T05:57:25.695Z,1.58
2022-09-02T06:00:05.804Z,1.63
2022-09-02T06:02:53.531Z,1.63
2022-09-02T06:05:27.675Z,2.50
2022-09-02T06:08:05.873Z,1.58
2022-09-02T06:10:35.074Z,1.75
2022-09-02T06:13:03.283Z,1.42
2022-09-02T06:15:34.716Z,2.20
2022-09-02T06:18:05.144Z,2.80
2022-09-02T06:20:34.805Z,1.65
2022-09-02T06:23:04.217Z,1.30
2022-09-02T06:25:33.013Z,2.22
2022-09-02T06:28:06.406Z,1.77
2022-09-02T06:30:40.773Z,1.75
2022-09-02T06:33:11.304Z,1.35
2022-09-02T06:35:43.993Z,1.50
2022-09-02T06:38:14.985Z,2.22
2022-09-02T06:40:49.466Z,1.63
2022-09-02T06:43:20.352Z,1.33
2022-09-02T06:46:01.895Z,3.40
2022-09-02T06:48:32.767Z,2.47
2022-09-02T06:51:02.455Z,2.33
2022-09-02T06:53:32.096Z,4.22
2022-09-02T06:56:00.435Z,2.33
2022-09-02T06:58:28.725Z,2.60
2022-09-02T07:00:58.004Z,3.05
2022-09-02T07:03:43.815Z,3.00
2022-09-02T07:06:13.956Z,4.30
2022-09-02T07:08:46.765Z,2.38
2022-09-02T07:11:19.885Z,1.85
2022-09-02T07:13:50.537Z,1.88
2022-09-02T07:16:26.832Z,2.03
2022-09-02T07:18:56.095Z,1.92
2022-09-02T07:21:26.486Z,2.00
2022-09-02T07:23:55.293Z,1.73
2022-09-02T07:26:23.747Z,1.73
2022-09-02T07:28:54.677Z,2.03
2022-09-02T07:31:24.987Z,2.25
2022-09-02T07:33:58.885Z,2.80
2022-09-02T07:36:29.953Z,1.30
2022-09-02T07:39:00.245Z,2.15
2022-09-02T07:41:29.024Z,1.88
2022-09-02T07:43:59.665Z,1.45
2022-09-02T07:46:31.630Z,2.63
2022-09-02T07:49:00.495Z,2.72
2022-09-02T07:51:30.869Z,5.35
2022-09-02T07:54:02.158Z,3.22
2022-09-02T07:56:32.014Z,2.05
2022-09-02T07:59:01.935Z,2.38
2022-09-02T08:01:31.796Z,1.48
2022-09-02T08:04:02.737Z,4.05
2022-09-02T08:06:37.835Z,1.48
2022-09-02T08:09:11.259Z,4.45
2022-09-02T08:14:11.747Z,1.92
2022-09-02T08:16:40.780Z,1.77
2022-09-02T08:19:09.925Z,4.93
2022-09-02T08:21:40.075Z,1.58
2022-09-02T08:24:08.368Z,4.45
2022-09-02T08:26:37.434Z,2.10
2022-09-02T08:29:06.525Z,2.83
2022-09-02T08:31:36.118Z,3.83
2022-09-02T08:34:04.855Z,4.25
2022-09-02T08:36:33.656Z,1.90
2022-09-02T08:39:05.922Z,4.95
2022-09-02T08:41:43.265Z,3.00
2022-09-02T08:44:19.144Z,4.70
2022-09-02T08:46:48.223Z,6.60
2022-09-02T08:49:25.840Z,1.55
2022-09-02T08:51:58.229Z,4.10
2022-09-02T08:54:35.083Z,2.15
2022-09-02T08:57:03.983Z,3.00
2022-09-02T08:59:33.464Z,3.13
2022-09-02T09:02:16.721Z,2.05
2022-09-02T09:05:02.265Z,1.70
2022-09-02T09:07:37.105Z,2.38
2022-09-02T09:10:15.120Z,2.05
2022-09-02T09:13:00.423Z,2.15
2022-09-02T09:15:39.783Z,3.35
2022-09-02T09:18:11.074Z,5.18
2022-09-02T09:20:43.258Z,3.00
2022-09-02T09:23:23.125Z,3.47
2022-09-02T09:26:00.725Z,2.53
2022-09-02T09:28:29.256Z,3.00
2022-09-02T09:30:58.535Z,2.92
2022-09-02T09:33:26.815Z,2.35
2022-09-02T09:35:58.707Z,2.97
2022-09-02T09:38:31.567Z,1.98
2022-09-02T09:41:21.715Z,3.05
2022-09-02T09:43:50.455Z,2.10
2022-09-02T09:46:37.705Z,2.85
2022-09-02T09:49:06.446Z,3.83
2022-09-02T09:51:49.802Z,3.60
2022-09-02T09:54:19.366Z,2.67
2022-09-02T09:56:48.904Z,2.45
2022-09-02T09:59:38.404Z,3.42
2022-09-02T10:02:06.729Z,4.38
2022-09-02T10:04:43.716Z,2.58
2022-09-02T10:07:13.804Z,2.45
2022-09-02T10:09:42.316Z,2.55
2022-09-02T10:12:14.037Z,5.45
2022-09-02T10:14:45.973Z,3.17
2022-09-02T10:17:33.769Z,2.78
2022-09-02T10:20:09.066Z,3.78
2022-09-02T10:23:06.063Z,3.60
2022-09-02T10:25:45.894Z,2.25
2022-09-02T10:28:26.534Z,4.00
2022-09-02T10:31:05.067Z,4.05
2022-09-02T10:33:42.195Z,4.07
2022-09-02T10:36:22.078Z,4.07
2022-09-02T10:38:53.174Z,3.60
2022-09-02T10:41:35.009Z,3.10
2022-09-02T10:44:30.408Z,3.53
2022-09-02T10:47:02.588Z,4.40
2022-09-02T10:49:48.004Z,4.60
2022-09-02T10:52:29.894Z,7.03
2022-09-02T10:55:08.639Z,4.25
2022-09-02T10:57:49.635Z,3.95
2022-09-02T11:00:20.968Z,2.47
2022-09-02T11:02:52.895Z,4.90
2022-09-02T11:05:24.606Z,2.70
2022-09-02T11:07:58.994Z,3.80
2022-09-02T11:10:30.755Z,5.20
2022-09-02T11:13:06.025Z,2.42
2022-09-02T11:15:47.427Z,3.85
2022-09-02T11:18:23.158Z,3.63
2022-09-02T11:21:05.073Z,5.38
2022-09-02T11:23:42.818Z,3.38
2022-09-02T11:26:17.494Z,3.35
2022-09-02T11:28:55.464Z,3.35
2022-09-02T11:31:36.970Z,4.55
2022-09-02T11:34:17.920Z,5.57
2022-09-02T11:36:46.214Z,3.47
2022-09-02T11:39:30.688Z,3.15
2022-09-02T11:42:19.475Z,2.47
2022-09-02T11:45:11.381Z,3.05
2022-09-02T11:47:58.584Z,2.78
2022-09-02T11:50:39.435Z,4.53
2022-09-02T11:53:20.987Z,7.15
2022-09-02T11:55:56.416Z,7.60
2022-09-02T11:58:44.144Z,6.93
2022-09-02T12:01:25.233Z,5.03
2022-09-02T12:04:55.975Z,7.53
2022-09-02T12:07:32.738Z,7.28
2022-09-02T12:10:03.635Z,4.88
2022-09-02T12:13:09.844Z,4.38
2022-09-02T12:15:40.671Z,3.50
2022-09-02T12:18:15.482Z,3.20
2022-09-02T12:21:07.558Z,3.10
2022-09-02T12:24:13.092Z,3.00
2022-09-02T12:27:18.675Z,4.90
2022-09-02T12:29:47.065Z,3.03
2022-09-02T12:32:49.609Z,4.97
2022-09-02T12:35:34.959Z,3.00
2022-09-02T12:38:28.154Z,4.03
2022-09-02T12:41:10.895Z,3.20
2022-09-02T12:43:51.323Z,3.45
2022-09-02T12:46:28.728Z,3.33
2022-09-02T12:49:05.534Z,4.25
2022-09-02T12:51:54.254Z,4.68
2022-09-02T12:54:33.445Z,3.20
2022-09-02T12:57:03.404Z,3.60
2022-09-02T12:59:34.455Z,3.53
2022-09-02T13:02:17.126Z,3.97
2022-09-02T13:04:57.275Z,3.70
2022-09-02T13:08:02.888Z,3.83
2022-09-02T13:10:54.905Z,4.70
2022-09-02T13:14:00.214Z,8.88
2022-09-02T13:16:40.132Z,4.78
2022-09-02T13:19:42.536Z,4.10
2022-09-02T13:22:41.222Z,3.72
2022-09-02T13:25:32.655Z,3.85
2022-09-02T13:28:18.975Z,3.78
2022-09-02T13:31:03.342Z,8.23
2022-09-02T13:33:31.714Z,5.25
2022-09-02T13:36:00.815Z,3.15
2022-09-02T13:38:32.867Z,3.08
2022-09-02T13:41:01.263Z,3.70
2022-09-02T13:43:31.017Z,4.15
2022-09-02T13:46:03.562Z,5.68
2022-09-02T13:48:34.063Z,5.60
2022-09-02T13:51:13.845Z,5.15
2022-09-02T13:54:05.059Z,3.53
2022-09-02T13:56:33.464Z,4.68
2022-09-02T13:59:03.324Z,3.40
2022-09-02T14:01:34.086Z,3.25
2022-09-02T14:04:07.164Z,5.40
2022-09-02T14:06:38.387Z,4.07
2022-09-02T14:09:12.732Z,7.15
2022-09-02T14:11:45.816Z,3.90
2022-09-02T14:14:17.511Z,2.88
2022-09-02T14:16:45.984Z,3.75
2022-09-02T14:19:26.106Z,8.90
2022-09-02T14:21:57.323Z,3.17
2022-09-02T14:24:28.273Z,4.22
2022-09-02T14:26:58.212Z,4.10
2022-09-02T14:29:32.053Z,5.85
2022-09-02T14:32:22.690Z,5.72
2022-09-02T14:35:10.615Z,3.17
2022-09-02T14:37:53.533Z,5.13
2022-09-02T14:40:34.244Z,6.23
2022-09-02T14:43:03.192Z,4.65
2022-09-02T14:45:34.916Z,4.20
2022-09-02T14:48:12.005Z,6.85
2022-09-02T14:50:41.822Z,4.38
2022-09-02T14:53:12.675Z,6.03
2022-09-02T14:55:46.675Z,6.88
2022-09-02T14:58:16.038Z,6.55
2022-09-02T15:00:48.432Z,6.05
2022-09-02T15:03:17.534Z,6.43
2022-09-02T15:05:46.432Z,6.50
2022-09-02T15:08:16.006Z,5.45
2022-09-02T15:10:45.271Z,4.50
2022-09-02T15:13:16.228Z,6.63
2022-09-02T15:15:46.217Z,3.38
2022-09-02T15:18:16.344Z,7.10
2022-09-02T15:20:44.555Z,5.47
2022-09-02T15:23:12.786Z,7.88
2022-09-02T15:25:41.726Z,3.53
2022-09-02T15:28:11.233Z,6.70
2022-09-02T15:30:40.089Z,4.53
2022-09-02T15:33:19.792Z,9.50
2022-09-02T15:35:48.373Z,6.13
2022-09-02T15:38:17.474Z,4.05
2022-09-02T15:40:46.145Z,6.93
2022-09-02T15:43:17.060Z,5.53
2022-09-02T15:45:47.501Z,7.85
2022-09-02T15:48:18.067Z,5.15
2022-09-02T15:50:47.208Z,5.72
2022-09-02T15:53:16.397Z,4.05
2022-09-02T15:55:45.620Z,4.22
2022-09-02T15:58:15.563Z,6.05
2022-09-02T16:00:44.122Z,8.25
2022-09-02T16:03:12.325Z,4.85
2022-09-02T16:05:43.252Z,3.97
2022-09-02T16:08:11.845Z,4.65
2022-09-02T16:10:40.806Z,4.68
2022-09-02T16:13:09.145Z,5.18
2022-09-02T16:15:37.375Z,4.35
2022-09-02T16:18:05.782Z,3.88
2022-09-02T16:20:33.984Z,6.18
2022-09-02T16:23:04.295Z,7.60
2022-09-02T16:25:32.847Z,6.03
2022-09-02T16:28:01.627Z,5.25
2022-09-02T16:30:30.019Z,4.75
2022-09-02T16:32:58.464Z,8.38
2022-09-02T16:35:27.374Z,5.00
2022-09-02T16:37:57.466Z,7.93
2022-09-02T16:40:27.274Z,4.32
2022-09-02T16:42:55.716Z,4.10
2022-09-02T16:45:24.115Z,6.68
2022-09-02T16:47:52.662Z,7.03
2022-09-02T16:50:21.252Z,4.88
2022-09-02T16:52:50.696Z,5.05
2022-09-02T16:55:18.875Z,5.82
2022-09-02T16:57:48.777Z,6.18
2022-09-02T17:00:18.314Z,7.00
2022-09-02T17:02:46.825Z,4.35
2022-09-02T17:05:17.893Z,4.00
2022-09-02T17:07:46.819Z,4.28
2022-09-02T17:10:15.779Z,7.22
2022-09-02T17:12:44.038Z,6.90
2022-09-02T17:15:13.742Z,5.88
2022-09-02T17:17:42.490Z,5.45
2022-09-02T17:20:13.545Z,4.78
2022-09-02T17:22:41.796Z,3.70
2022-09-02T17:25:10.374Z,3.53
2022-09-02T17:27:39.033Z,5.13
2022-09-02T17:30:08.234Z,3.63
2022-09-02T17:32:38.593Z,5.78
2022-09-02T17:35:07.873Z,4.72
2022-09-02T17:37:37.955Z,6.90
2022-09-02T17:40:28.183Z,6.50
2022-09-02T17:42:56.156Z,7.78
2022-09-02T17:45:24.643Z,5.45
2022-09-02T17:47:54.345Z,3.85
2022-09-02T17:50:22.574Z,3.42
2022-09-02T17:52:51.014Z,7.22
2022-09-02T17:55:19.892Z,6.13
2022-09-02T17:58:01.901Z,5.78
2022-09-02T18:00:33.105Z,5.15
2022-09-02T18:03:22.000Z,4.97
2022-09-02T18:05:59.004Z,5.55
2022-09-02T18:08:36.713Z,4.15
2022-09-02T18:11:07.964Z,5.03
2022-09-02T18:13:54.313Z,5.10
2022-09-02T18:16:33.426Z,6.63
2022-09-02T18:19:13.684Z,5.18
2022-09-02T18:21:52.406Z,4.55
2022-09-02T18:24:34.695Z,6.22
2022-09-02T18:27:17.002Z,4.03
2022-09-02T18:29:59.244Z,6.05
2022-09-02T18:32:44.456Z,3.88
2022-09-02T18:35:25.708Z,7.50
2022-09-02T18:38:06.025Z,7.13
2022-09-02T18:40:44.130Z,5.72
2022-09-02T18:43:22.534Z,10.50
2022-09-02T18:45:52.712Z,6.13
2022-09-02T18:48:25.493Z,6.20
2022-09-02T18:50:59.727Z,10.38
2022-09-02T18:53:31.505Z,5.53
2022-09-02T18:56:06.382Z,6.70
2022-09-02T18:58:45.363Z,8.32
2022-09-02T19:01:20.778Z,8.80
2022-09-02T19:03:50.076Z,7.03
2022-09-02T19:06:21.947Z,6.18
2022-09-02T19:08:57.502Z,6.22
2022-09-02T19:11:27.302Z,8.68
2022-09-02T19:13:57.713Z,6.55
2022-09-02T19:16:28.122Z,9.40
2022-09-02T19:18:56.565Z,10.40
2022-09-02T19:21:33.235Z,9.95
2022-09-02T19:24:03.555Z,5.88
2022-09-02T19:26:32.066Z,7.93
2022-09-02T19:29:04.433Z,6.22
2022-09-02T19:31:33.208Z,4.55
2022-09-02T19:34:05.165Z,6.97
2022-09-02T19:36:36.256Z,5.35
2022-09-02T19:39:04.742Z,5.22
2022-09-02T19:41:33.604Z,5.70
2022-09-02T19:44:01.954Z,6.50
2022-09-02T19:49:20.022Z,6.75
2022-09-02T19:51:50.505Z,9.45
2022-09-02T19:54:19.296Z,10.68
2022-09-02T19:56:48.015Z,4.93
2022-09-02T19:59:17.340Z,5.18
2022-09-02T20:01:45.799Z,4.32
2022-09-02T20:04:14.275Z,5.70
2022-09-02T20:06:42.482Z,5.50
2022-09-02T20:09:12.784Z,5.72
2022-09-02T20:11:41.166Z,5.03
2022-09-02T20:14:09.703Z,6.68
2022-09-02T20:16:38.645Z,6.20
2022-09-02T20:19:07.264Z,4.68
2022-09-02T20:21:43.235Z,4.95
2022-09-02T20:24:16.424Z,7.78
2022-09-02T20:26:52.905Z,4.75
2022-09-02T20:29:34.704Z,6.80
2022-09-02T20:32:12.973Z,6.30
2022-09-02T20:34:57.165Z,7.30
2022-09-02T20:37:36.166Z,7.85
2022-09-02T20:40:23.063Z,8.73
2022-09-02T20:43:08.523Z,6.57
2022-09-02T20:45:40.992Z,6.70
2022-09-02T20:48:27.552Z,6.20
2022-09-02T20:51:03.652Z,5.60
2022-09-02T20:53:44.703Z,4.75
2022-09-02T20:56:24.637Z,5.90
2022-09-02T20:59:01.726Z,6.88
2022-09-02T21:01:35.567Z,5.55
2022-09-02T21:04:08.615Z,6.07
2022-09-02T21:06:43.842Z,8.18
2022-09-02T21:09:21.822Z,7.05
2022-09-02T21:12:03.539Z,6.97
2022-09-02T21:14:41.500Z,5.47
2022-09-02T21:17:20.954Z,3.92
2022-09-02T21:19:57.006Z,5.78
2022-09-02T21:22:36.545Z,4.55
2022-09-02T21:25:11.076Z,8.15
2022-09-02T21:27:46.374Z,5.00
2022-09-02T21:30:20.594Z,8.18
2022-09-02T21:32:52.624Z,5.40
2022-09-02T21:35:24.435Z,4.95
2022-09-02T21:37:59.206Z,4.88
2022-09-02T21:40:41.085Z,3.58
2022-09-02T21:43:27.495Z,4.45
2022-09-02T21:46:06.835Z,5.93
2022-09-02T21:48:41.313Z,5.05
2022-09-02T21:51:18.561Z,6.32
2022-09-02T21:54:00.761Z,4.25
2022-09-02T21:56:41.423Z,3.97
2022-09-02T21:59:20.368Z,3.92
2022-09-02T22:01:55.970Z,4.65
2022-09-02T22:04:41.394Z,6.68
2022-09-02T22:07:20.042Z,4.57
2022-09-02T22:09:51.443Z,4.00
2022-09-02T22:12:20.063Z,5.68
2022-09-02T22:14:59.144Z,3.83
2022-09-02T22:17:36.395Z,3.97
2022-09-02T22:20:09.216Z,4.88
2022-09-02T22:22:45.024Z,3.83
2022-09-02T22:25:16.102Z,4.10
2022-09-02T22:27:50.849Z,6.30
2022-09-02T22:30:22.245Z,6.03
2022-09-02T22:32:54.144Z,5.60
2022-09-02T22:35:28.954Z,4.20
2022-09-02T22:38:04.143Z,4.75
2022-09-02T22:40:37.229Z,4.80
2022-09-02T22:43:12.561Z,3.90
2022-09-02T22:46:04.340Z,3.70
2022-09-02T22:48:57.915Z,4.30
2022-09-02T22:51:45.234Z,5.78
2022-09-02T22:54:13.613Z,4.63
2022-09-02T22:56:48.568Z,3.78
2022-09-02T22:59:29.363Z,5.70
2022-09-02T23:02:09.049Z,3.40
2022-09-02T23:04:49.584Z,5.65
2022-09-02T23:07:18.055Z,3.20
2022-09-02T23:09:53.028Z,3.30
2022-09-02T23:12:36.865Z,3.67
2022-09-02T23:15:18.081Z,5.18
2022-09-02T23:17:58.315Z,4.50
2022-09-02T23:20:38.335Z,4.25
2022-09-02T23:23:22.751Z,3.88
2022-09-02T23:26:09.425Z,3.70
2022-09-02T23:28:52.257Z,4.80
2022-09-02T23:31:39.527Z,4.80
2022-09-02T23:34:25.184Z,4.07
2022-09-02T23:37:00.494Z,7.80
2022-09-02T23:39:44.518Z,8.88
2022-09-02T23:42:14.037Z,6.15
2022-09-02T23:44:42.683Z,4.07
2022-09-02T23:47:37.381Z,4.03
2022-09-02T23:50:22.014Z,4.68
2022-09-02T23:52:58.842Z,5.57
2022-09-02T23:55:41.450Z,4.60
2022-09-02T23:58:23.466Z,4.30
